Weather at Toshevtsi Cropduster Strip [CLOSED]

Public forecast

Using degrees Celsius for public forecast. Weather courtesy of forecast.io.

Closest aviation weather report (METAR) to Toshevtsi Cropduster Strip

Closest report is Niš Constantine the Great Airport, 43.0 nm (79.7 km) SW.

2024/05/20 18:30 (retrieved 21 minutes ago)

LYNI 201830Z 07009KT 9999 FEW040 21/16 Q1013 NOSIG

Closest aviation forecast (TAF) to Toshevtsi Cropduster Strip

Closest forecast is Niš Constantine the Great Airport, 43.0 nm (79.7 km) SW.

2024/05/20 18:21 (retrieved 30 minutes ago)

TAF LYNI 201700Z 2018/2118 06006KT CAVOK TX26/2114Z TN15/2103Z BECMG 2106/2108 12012KT TEMPO 2111/2117 24015G25KT 3000 TSRA SCT030CB SCT040